Time;durP1;ratioP1;P1;durP2;ratioP2;P2;SDS_P1;SDS_P2;PMS_P1;PMS_P2;Temp;Humidity;BMP_temperature;BMP_pressure;BME280_temperature;BME280_humidity;BME280_pressure;Samples;Min_cycle;Max_cycle;Signal;HPM_P1;HPM_P2
2021/04/02 00:01:25;;;;;;;15.10;8.13;;;8.60;66.60;;;;;;4888810;29;20216;-75
2021/04/02 00:03:50;;;;;;;13.97;8.97;;;8.60;66.70;;;;;;4890546;29;20239;-74
2021/04/02 00:06:16;;;;;;;21.77;9.20;;;8.60;66.80;;;;;;4889492;29;20367;-74
2021/04/02 00:08:42;;;;;;;13.07;8.20;;;8.60;66.80;;;;;;4885539;29;20189;-74
2021/04/02 00:11:10;;;;;;;12.77;8.60;;;8.60;67.60;;;;;;4889311;29;20268;-73
2021/04/02 00:14:04;;;;;;;15.10;7.87;;;8.50;67.60;;;;;;4883819;29;20188;-74
2021/04/02 00:16:30;;;;;;;14.47;8.20;;;8.50;67.70;;;;;;4885833;29;20232;-73
2021/04/02 00:18:55;;;;;;;16.00;9.37;;;8.50;68.00;;;;;;4886941;29;20189;-72
2021/04/02 00:21:21;;;;;;;15.47;8.33;;;8.40;68.00;;;;;;4886854;29;20190;-73
2021/04/02 00:23:46;;;;;;;13.07;7.67;;;8.40;68.00;;;;;;4888045;29;20212;-73
2021/04/02 00:26:17;;;;;;;14.93;8.40;;;8.40;68.10;;;;;;4887696;29;20189;-73
2021/04/02 00:28:46;;;;;;;15.53;8.63;;;8.40;68.00;;;;;;4886194;29;20292;-74
2021/04/02 00:31:11;;;;;;;14.60;7.77;;;8.40;67.90;;;;;;4889331;29;20260;-74
2021/04/02 00:33:37;;;;;;;11.43;7.23;;;8.30;67.90;;;;;;4884500;29;20189;-73
2021/04/02 00:36:04;;;;;;;13.17;7.57;;;8.30;68.30;;;;;;4885901;29;20234;-73
2021/04/02 00:38:30;;;;;;;10.77;7.10;;;8.30;68.00;;;;;;4888873;29;20279;-74
2021/04/02 00:41:03;;;;;;;16.60;8.70;;;8.30;68.00;;;;;;4888763;29;20181;-74
2021/04/02 00:43:38;;;;;;;12.00;7.20;;;8.30;68.00;;;;;;4887723;29;20656;-74
2021/04/02 00:46:05;;;;;;;14.17;7.40;;;8.20;67.80;;;;;;4888504;29;20234;-73
2021/04/02 00:48:31;;;;;;;11.80;6.73;;;8.20;68.00;;;;;;4886892;29;20182;-74
2021/04/02 00:50:59;;;;;;;10.03;6.80;;;8.20;67.90;;;;;;4887626;29;20185;-74
2021/04/02 00:53:27;;;;;;;10.63;6.93;;;8.20;67.90;;;;;;4886227;29;20193;-74
2021/04/02 00:55:54;;;;;;;8.63;6.20;;;8.20;67.60;;;;;;4887975;29;20843;-74
2021/04/02 00:58:24;;;;;;;9.30;6.10;;;8.20;67.90;;;;;;4888863;29;20585;-74
2021/04/02 01:00:51;;;;;;;10.37;6.30;;;8.10;67.80;;;;;;4883610;29;20974;-74
2021/04/02 01:03:19;;;;;;;11.20;6.40;;;8.10;67.80;;;;;;4888200;29;20188;-74
2021/04/02 01:05:47;;;;;;;10.27;7.17;;;8.10;67.90;;;;;;4887728;29;20185;-73
2021/04/02 01:08:27;;;;;;;10.00;6.63;;;8.10;68.90;;;;;;4887089;29;20191;-74
2021/04/02 01:10:56;;;;;;;15.47;7.77;;;8.10;69.30;;;;;;4887384;29;20184;-74
2021/04/02 01:13:24;;;;;;;18.07;8.10;;;8.00;70.00;;;;;;4889563;29;20221;-74
2021/04/02 01:15:53;;;;;;;14.03;8.67;;;8.00;69.80;;;;;;4887498;29;20654;-74
2021/04/02 01:18:35;;;;;;;16.50;8.23;;;8.00;70.00;;;;;;4889476;29;20734;-74
2021/04/02 01:21:07;;;;;;;17.93;9.23;;;8.00;69.90;;;;;;4886115;29;20228;-73
2021/04/02 01:23:43;;;;;;;15.13;8.33;;;8.00;70.10;;;;;;4888475;29;20635;-73
2021/04/02 01:26:35;;;;;;;14.27;8.60;;;7.90;70.10;;;;;;4887915;29;20185;-74
2021/04/02 01:29:14;;;;;;;18.80;9.27;;;7.90;70.20;;;;;;4889029;29;20189;-74
2021/04/02 01:31:46;;;;;;;11.90;8.40;;;7.90;70.30;;;;;;4890317;29;20190;-73
2021/04/02 01:34:13;;;;;;;15.07;8.93;;;7.80;70.50;;;;;;4890059;29;20256;-74
2021/04/02 01:36:43;;;;;;;14.40;7.90;;;7.80;70.50;;;;;;4891765;29;20188;-74
2021/04/02 01:39:12;;;;;;;15.53;7.20;;;7.80;70.70;;;;;;4891265;29;20189;-73
2021/04/02 01:41:41;;;;;;;15.30;7.67;;;7.70;70.40;;;;;;4888979;29;20581;-73
2021/04/02 01:44:08;;;;;;;8.27;5.80;;;7.70;70.50;;;;;;4892275;29;20298;-73
2021/04/02 01:46:37;;;;;;;14.47;6.57;;;7.60;70.30;;;;;;4889090;29;20181;-73
2021/04/02 01:49:05;;;;;;;11.17;6.30;;;7.60;70.10;;;;;;4891565;29;20244;-73
2021/04/02 01:51:34;;;;;;;7.77;6.23;;;7.60;70.50;;;;;;4888923;29;20220;-74
2021/04/02 01:54:02;;;;;;;13.53;6.53;;;7.50;70.60;;;;;;4890377;29;20208;-73
2021/04/02 01:56:30;;;;;;;9.23;5.93;;;7.50;70.80;;;;;;4887926;29;20312;-73
2021/04/02 01:58:57;;;;;;;11.63;5.83;;;7.50;70.80;;;;;;4891206;29;20177;-73
2021/04/02 02:01:36;;;;;;;9.23;5.67;;;7.50;70.90;;;;;;4889541;29;20272;-74
2021/04/02 02:04:04;;;;;;;7.97;5.63;;;7.40;71.10;;;;;;4891403;29;20192;-73
2021/04/02 02:06:31;;;;;;;12.30;7.03;;;7.40;71.40;;;;;;4891621;29;20216;-73
2021/04/02 02:08:58;;;;;;;9.63;6.23;;;7.40;72.00;;;;;;4891146;29;20193;-72
2021/04/02 02:11:26;;;;;;;10.83;6.30;;;7.30;71.90;;;;;;4889428;29;20177;-73
2021/04/02 02:13:57;;;;;;;13.23;6.67;;;7.30;72.00;;;;;;4890726;29;20269;-72
2021/04/02 02:16:26;;;;;;;16.97;5.90;;;7.20;72.20;;;;;;4892348;29;20571;-74
2021/04/02 02:18:55;;;;;;;9.93;6.93;;;7.20;72.30;;;;;;4890873;29;20177;-73
2021/04/02 02:21:22;;;;;;;15.00;7.77;;;7.20;72.40;;;;;;4889983;29;20233;-74
2021/04/02 02:23:49;;;;;;;11.77;6.33;;;7.10;72.80;;;;;;4890455;29;20277;-74
2021/04/02 02:26:15;;;;;;;10.07;6.50;;;7.10;72.80;;;;;;4891488;29;20197;-74
2021/04/02 02:28:41;;;;;;;12.23;6.50;;;7.10;73.00;;;;;;4890944;29;20655;-73
2021/04/02 02:31:10;;;;;;;11.23;7.43;;;7.00;73.00;;;;;;4889444;29;20213;-74
2021/04/02 02:33:36;;;;;;;14.63;7.03;;;7.00;73.20;;;;;;4890241;29;20185;-74
2021/04/02 02:36:03;;;;;;;13.03;7.00;;;6.90;73.40;;;;;;4889361;29;20244;-74
2021/04/02 02:38:30;;;;;;;11.03;6.63;;;6.90;73.50;;;;;;4890920;29;20221;-73
2021/04/02 02:40:56;;;;;;;12.53;6.80;;;6.80;73.60;;;;;;4890955;29;20185;-74
2021/04/02 02:43:22;;;;;;;12.77;6.77;;;6.80;73.50;;;;;;4890736;29;20173;-74
2021/04/02 02:45:48;;;;;;;11.23;6.13;;;6.80;73.60;;;;;;4891571;29;20185;-73
2021/04/02 02:48:14;;;;;;;11.03;6.10;;;6.70;73.60;;;;;;4890470;29;20268;-73
2021/04/02 02:50:47;;;;;;;12.80;5.63;;;6.70;73.60;;;;;;4888948;29;20268;-74
2021/04/02 02:53:17;;;;;;;13.10;5.80;;;6.70;73.30;;;;;;4888431;29;20198;-73
2021/04/02 02:55:45;;;;;;;9.03;6.53;;;6.70;73.70;;;;;;4883048;29;20223;-74
2021/04/02 02:58:15;;;;;;;11.60;6.70;;;6.70;73.60;;;;;;4881094;29;20225;-74
2021/04/02 03:00:43;;;;;;;11.60;7.40;;;6.60;73.90;;;;;;4890749;29;20573;-74
2021/04/02 03:03:15;;;;;;;12.00;7.33;;;6.60;73.90;;;;;;4891690;29;20187;-74
2021/04/02 03:05:45;;;;;;;12.03;6.27;;;6.60;73.90;;;;;;4892144;29;20192;-74
2021/04/02 03:08:15;;;;;;;9.80;7.37;;;6.60;74.00;;;;;;4889757;29;20214;-74
2021/04/02 03:10:42;;;;;;;11.53;6.03;;;6.60;74.40;;;;;;4890280;29;20593;-74
2021/04/02 03:13:08;;;;;;;14.90;7.10;;;6.50;74.70;;;;;;4882636;29;20189;-74
2021/04/02 03:15:35;;;;;;;7.70;5.37;;;6.50;74.40;;;;;;4889953;29;20367;-74
2021/04/02 03:18:05;;;;;;;11.23;5.80;;;6.50;74.40;;;;;;4890290;29;20291;-73
2021/04/02 03:20:34;;;;;;;8.33;5.80;;;6.50;74.40;;;;;;4881484;29;20181;-73
2021/04/02 03:23:01;;;;;;;10.10;5.87;;;6.50;74.10;;;;;;4883177;29;20190;-73
2021/04/02 03:25:28;;;;;;;7.97;4.83;;;6.50;74.40;;;;;;4890959;29;20268;-74
2021/04/02 03:27:54;;;;;;;15.27;6.70;;;6.40;74.60;;;;;;4883385;29;20664;-73
2021/04/02 03:30:22;;;;;;;8.93;6.03;;;6.40;74.90;;;;;;4889520;29;21944;-74
2021/04/02 03:32:52;;;;;;;5.93;4.53;;;6.40;74.70;;;;;;4883566;29;20663;-74
2021/04/02 03:35:19;;;;;;;10.50;5.77;;;6.40;74.40;;;;;;4890786;29;20224;-74
2021/04/02 03:37:48;;;;;;;11.20;6.83;;;6.40;74.30;;;;;;4881662;29;20186;-73
2021/04/02 03:40:17;;;;;;;9.53;6.97;;;6.30;74.30;;;;;;4891027;29;20228;-73
2021/04/02 03:42:46;;;;;;;19.80;9.73;;;6.30;74.60;;;;;;4882605;29;20190;-73
2021/04/02 03:45:14;;;;;;;17.67;9.13;;;6.30;74.70;;;;;;4889576;29;20215;-74
2021/04/02 03:47:42;;;;;;;9.40;6.23;;;6.30;74.70;;;;;;4890071;29;20193;-74
2021/04/02 03:50:11;;;;;;;10.10;6.67;;;6.30;74.90;;;;;;4880796;29;20221;-74
2021/04/02 03:53:07;;;;;;;11.43;6.60;;;6.30;74.50;;;;;;4891962;29;20224;-74
2021/04/02 03:55:39;;;;;;;10.03;6.77;;;6.30;74.50;;;;;;4888108;29;20205;-74
2021/04/02 03:58:05;;;;;;;11.60;6.87;;;6.30;74.80;;;;;;4885083;29;20321;-74
2021/04/02 04:01:08;;;;;;;12.53;7.00;;;6.30;74.80;;;;;;4889132;29;20185;-73
2021/04/02 04:03:36;;;;;;;8.90;6.23;;;6.30;74.60;;;;;;4887027;29;20182;-74
2021/04/02 04:06:03;;;;;;;11.83;5.80;;;6.30;75.20;;;;;;4884963;29;20189;-73
2021/04/02 04:08:31;;;;;;;14.33;6.97;;;6.30;75.30;;;;;;4883984;29;20268;-73
2021/04/02 04:10:59;;;;;;;11.70;6.80;;;6.30;75.40;;;;;;4887146;29;20212;-74
2021/04/02 04:13:26;;;;;;;7.67;6.47;;;6.30;75.20;;;;;;4885567;29;20631;-74
2021/04/02 04:15:54;;;;;;;12.57;6.50;;;6.30;75.40;;;;;;4890706;29;20217;-74
2021/04/02 04:18:21;;;;;;;19.20;6.23;;;6.30;75.40;;;;;;4891325;29;20244;-74
2021/04/02 04:20:48;;;;;;;7.93;7.13;;;6.30;75.70;;;;;;4890252;29;20650;-73
2021/04/02 04:23:14;;;;;;;11.00;6.93;;;6.30;75.40;;;;;;4887665;29;20256;-74
2021/04/02 04:25:41;;;;;;;15.30;7.03;;;6.30;75.40;;;;;;4890069;29;20685;-73
2021/04/02 04:28:09;;;;;;;12.93;6.33;;;6.20;75.50;;;;;;4889381;29;20201;-73
2021/04/02 04:30:36;;;;;;;9.67;6.60;;;6.20;75.70;;;;;;4887768;29;20189;-74
2021/04/02 04:33:02;;;;;;;12.97;6.80;;;6.20;76.00;;;;;;4888690;29;20215;-73
2021/04/02 04:35:30;;;;;;;9.30;6.93;;;6.20;76.20;;;;;;4888210;29;20212;-73
2021/04/02 04:37:56;;;;;;;11.23;7.00;;;6.30;76.40;;;;;;4888029;29;20279;-74
2021/04/02 04:40:24;;;;;;;10.17;6.40;;;6.30;76.20;;;;;;4888122;29;20197;-74
2021/04/02 04:42:50;;;;;;;11.63;7.00;;;6.30;76.20;;;;;;4886914;29;20260;-74
2021/04/02 04:45:21;;;;;;;13.43;6.83;;;6.30;76.00;;;;;;4887048;29;20578;-73
2021/04/02 04:47:48;;;;;;;14.43;7.80;;;6.30;76.20;;;;;;4887916;29;20181;-73
2021/04/02 04:50:15;;;;;;;17.90;7.20;;;6.30;76.40;;;;;;4886492;29;20657;-73
2021/04/02 04:53:01;;;;;;;19.00;8.33;;;6.40;76.20;;;;;;4888095;29;20575;-73
2021/04/02 04:55:29;;;;;;;16.80;7.60;;;6.40;76.10;;;;;;4888346;29;20223;-73
2021/04/02 04:57:57;;;;;;;18.30;8.97;;;6.40;76.10;;;;;;4887282;29;20193;-74
2021/04/02 05:00:24;;;;;;;13.27;8.40;;;6.40;75.90;;;;;;4888367;29;20276;-73
2021/04/02 05:02:52;;;;;;;21.73;8.93;;;6.40;76.10;;;;;;4886231;29;20217;-73
2021/04/02 05:05:30;;;;;;;18.23;9.13;;;6.40;75.90;;;;;;4890790;29;20218;-73
2021/04/02 05:07:58;;;;;;;12.67;7.67;;;6.40;75.70;;;;;;4889756;29;20702;-73
2021/04/02 05:10:24;;;;;;;12.40;7.50;;;6.40;76.00;;;;;;4891760;29;20225;-73
2021/04/02 05:12:51;;;;;;;14.30;7.80;;;6.50;76.10;;;;;;4889850;29;20216;-72
2021/04/02 05:15:19;;;;;;;10.63;7.13;;;6.50;76.00;;;;;;4881771;29;20212;-73
2021/04/02 05:17:46;;;;;;;13.20;7.77;;;6.50;76.00;;;;;;4888658;29;20213;-72
2021/04/02 05:20:12;;;;;;;11.80;6.87;;;6.50;75.90;;;;;;4888250;29;20199;-73
2021/04/02 05:22:38;;;;;;;11.73;7.63;;;6.50;75.80;;;;;;4888601;29;20267;-72
2021/04/02 05:25:05;;;;;;;11.17;8.37;;;6.50;75.80;;;;;;4886161;29;20750;-72
2021/04/02 05:27:31;;;;;;;22.30;9.40;;;6.50;76.10;;;;;;4892061;29;20232;-73
2021/04/02 05:29:57;;;;;;;15.93;8.20;;;6.50;76.20;;;;;;4888887;29;20182;-72
2021/04/02 05:32:23;;;;;;;12.50;8.10;;;6.50;76.00;;;;;;4892697;29;20200;-72
2021/04/02 05:34:49;;;;;;;16.87;9.03;;;6.60;76.10;;;;;;4890248;29;20644;-72
2021/04/02 05:37:15;;;;;;;13.93;8.47;;;6.60;76.30;;;;;;4890607;29;20264;-74
2021/04/02 05:39:40;;;;;;;14.57;7.80;;;6.60;77.10;;;;;;4875362;29;20252;-72
2021/04/02 05:42:06;;;;;;;12.83;7.97;;;6.60;76.70;;;;;;4890260;29;20173;-72
2021/04/02 05:44:35;;;;;;;12.67;8.10;;;6.70;76.70;;;;;;4890584;29;20196;-73
2021/04/02 05:47:07;;;;;;;16.00;8.20;;;6.60;76.50;;;;;;4885974;29;20795;-73
2021/04/02 05:49:34;;;;;;;18.43;7.93;;;6.70;76.70;;;;;;4889494;29;20328;-71
2021/04/02 05:52:00;;;;;;;9.37;7.27;;;6.70;76.50;;;;;;4888934;29;20193;-70
2021/04/02 05:54:33;;;;;;;13.17;8.93;;;6.80;76.60;;;;;;4889155;29;20329;-70
2021/04/02 05:56:59;;;;;;;14.03;7.70;;;6.80;76.40;;;;;;4885085;29;20208;-71
2021/04/02 05:59:26;;;;;;;12.27;7.60;;;6.90;76.20;;;;;;4886034;29;20643;-72
2021/04/02 06:01:53;;;;;;;9.77;7.43;;;6.90;75.70;;;;;;4889080;29;20279;-71
2021/04/02 06:04:19;;;;;;;13.00;7.57;;;7.00;75.90;;;;;;4889067;29;20276;-71
2021/04/02 06:06:46;;;;;;;14.80;8.70;;;7.10;76.10;;;;;;4889253;29;20188;-70
2021/04/02 06:09:13;;;;;;;15.33;8.40;;;7.20;76.40;;;;;;4887436;29;20791;-70
2021/04/02 06:11:39;;;;;;;13.00;8.50;;;7.20;75.80;;;;;;4886047;29;20189;-70
2021/04/02 06:14:07;;;;;;;13.63;8.40;;;7.30;75.80;;;;;;4879905;29;20671;-70
2021/04/02 06:16:33;;;;;;;16.47;9.10;;;7.30;75.40;;;;;;4885758;29;20251;-71
2021/04/02 06:19:11;;;;;;;15.33;9.10;;;7.40;74.90;;;;;;4886850;29;20185;-71
2021/04/02 06:21:47;;;;;;;16.10;7.90;;;7.40;74.30;;;;;;4889811;29;20284;-69
2021/04/02 06:24:14;;;;;;;13.23;7.73;;;7.50;74.20;;;;;;4889247;29;20196;-69
2021/04/02 06:26:56;;;;;;;15.33;8.30;;;7.60;74.30;;;;;;4890451;29;20177;-69
2021/04/02 06:29:22;;;;;;;13.47;8.27;;;7.70;73.90;;;;;;4889100;29;20185;-70
2021/04/02 06:31:48;;;;;;;10.30;7.27;;;7.80;74.10;;;;;;4887726;29;20663;-72
2021/04/02 06:34:15;;;;;;;11.47;7.83;;;7.90;73.70;;;;;;4886656;29;20182;-72
2021/04/02 06:36:46;;;;;;;20.83;9.67;;;8.00;73.50;;;;;;4890046;29;20189;-71
2021/04/02 06:39:11;;;;;;;9.83;7.43;;;8.10;73.10;;;;;;4887786;29;20204;-71
2021/04/02 06:41:37;;;;;;;18.33;7.23;;;8.20;73.10;;;;;;4888112;29;20185;-73
2021/04/02 06:44:05;;;;;;;18.80;7.00;;;8.20;72.20;;;;;;4873135;29;20185;-72
2021/04/02 06:46:34;;;;;;;10.30;7.57;;;8.30;72.10;;;;;;4883461;29;20186;-71
2021/04/02 06:49:17;;;;;;;14.73;7.80;;;8.40;71.80;;;;;;4886102;29;20205;-71
2021/04/02 06:51:45;;;;;;;8.60;6.47;;;8.50;71.60;;;;;;4887167;29;20303;-71
2021/04/02 06:54:16;;;;;;;8.27;5.77;;;8.60;71.60;;;;;;4886590;29;20586;-71
2021/04/02 06:56:47;;;;;;;11.13;5.43;;;8.70;70.70;;;;;;4888021;29;20193;-71
2021/04/02 06:59:19;;;;;;;9.13;6.17;;;8.80;70.70;;;;;;4887634;29;20181;-71
2021/04/02 07:01:48;;;;;;;10.10;6.07;;;8.90;70.30;;;;;;4888106;29;20256;-71
2021/04/02 07:04:15;;;;;;;9.47;6.43;;;9.00;70.10;;;;;;4888571;29;20567;-72
2021/04/02 07:06:42;;;;;;;8.77;6.23;;;9.10;70.20;;;;;;4887918;29;20179;-70
2021/04/02 07:09:12;;;;;;;20.93;7.40;;;9.20;70.00;;;;;;4886929;29;20235;-70
2021/04/02 07:11:40;;;;;;;8.80;5.37;;;9.30;69.80;;;;;;4887175;29;20188;-70
2021/04/02 07:14:09;;;;;;;11.07;6.57;;;9.40;69.60;;;;;;4888908;29;21441;-72
2021/04/02 07:16:35;;;;;;;9.33;5.73;;;9.50;69.50;;;;;;4887167;29;20902;-71
2021/04/02 07:19:03;;;;;;;6.13;5.53;;;9.60;68.80;;;;;;4887653;29;20280;-71
2021/04/02 07:21:33;;;;;;;9.30;5.40;;;9.70;68.90;;;;;;4887791;29;20343;-71
2021/04/02 07:24:03;;;;;;;6.17;5.07;;;9.80;68.90;;;;;;4887613;29;20720;-71
2021/04/02 07:26:29;;;;;;;10.10;6.57;;;10.00;68.80;;;;;;4889196;29;20642;-72
2021/04/02 07:28:55;;;;;;;9.37;6.17;;;10.10;68.50;;;;;;4886631;29;20185;-71
2021/04/02 07:31:22;;;;;;;16.13;7.63;;;10.20;68.20;;;;;;4887721;29;20190;-73
2021/04/02 07:33:50;;;;;;;8.13;6.47;;;10.40;67.60;;;;;;4888775;29;20220;-73
2021/04/02 07:36:18;;;;;;;9.87;6.93;;;10.50;67.60;;;;;;4879702;29;20216;-73
2021/04/02 07:38:54;;;;;;;7.60;6.63;;;10.60;67.00;;;;;;4888731;29;20197;-72
2021/04/02 07:41:22;;;;;;;7.27;6.10;;;10.70;67.10;;;;;;4888830;29;20248;-71
2021/04/02 07:43:53;;;;;;;7.93;6.50;;;10.80;66.60;;;;;;4887134;29;20189;-72
2021/04/02 07:46:23;;;;;;;9.67;5.87;;;10.90;66.60;;;;;;4887043;29;20693;-72
2021/04/02 07:49:09;;;;;;;9.83;6.43;;;11.00;67.00;;;;;;4879417;29;20189;-72
2021/04/02 07:51:43;;;;;;;10.97;6.40;;;11.10;65.90;;;;;;4876975;29;20197;-72
2021/04/02 07:54:26;;;;;;;9.70;6.63;;;11.30;65.30;;;;;;4887110;29;20731;-72
2021/04/02 07:56:55;;;;;;;9.90;6.43;;;11.40;65.70;;;;;;4887471;29;20193;-72
2021/04/02 07:59:47;;;;;;;7.30;6.60;;;11.60;64.80;;;;;;4886925;29;20208;-72
2021/04/02 08:02:29;;;;;;;11.23;6.60;;;11.80;65.20;;;;;;4876271;29;20215;-72
2021/04/02 08:04:57;;;;;;;18.37;6.90;;;12.00;65.20;;;;;;4888851;29;20653;-72
2021/04/02 08:07:40;;;;;;;10.67;7.07;;;12.10;65.10;;;;;;4887187;29;20288;-72
2021/04/02 08:10:12;;;;;;;15.10;7.23;;;12.30;64.70;;;;;;4885146;29;20203;-70
2021/04/02 08:12:37;;;;;;;11.53;7.43;;;12.50;64.20;;;;;;4884921;29;20697;-72
2021/04/02 08:15:11;;;;;;;9.20;8.20;;;12.70;63.50;;;;;;4887669;29;20302;-72
2021/04/02 08:17:38;;;;;;;14.27;7.97;;;12.90;62.90;;;;;;4886703;29;20221;-71
2021/04/02 08:20:13;;;;;;;11.88;8.05;;;13.00;62.40;;;;;;4888123;29;20197;-72
2021/04/02 08:22:40;;;;;;;12.13;8.48;;;13.20;62.10;;;;;;4889061;29;20187;-71
2021/04/02 08:25:09;;;;;;;11.30;7.30;;;13.40;62.00;;;;;;4888216;29;20742;-72
2021/04/02 08:27:35;;;;;;;11.20;8.02;;;13.60;62.20;;;;;;4888096;29;20189;-72
2021/04/02 08:30:04;;;;;;;13.63;8.23;;;13.90;61.90;;;;;;4882873;29;20185;-71
2021/04/02 08:32:51;;;;;;;10.43;8.00;;;14.10;61.40;;;;;;4875807;29;20232;-72
2021/04/02 08:35:19;;;;;;;14.98;8.75;;;14.40;60.20;;;;;;4885828;29;20264;-71
2021/04/02 08:38:05;;;;;;;12.10;8.23;;;14.70;60.80;;;;;;4886135;29;20766;-72
2021/04/02 08:40:32;;;;;;;14.95;7.63;;;15.10;60.30;;;;;;4895375;29;20185;-71
2021/04/02 08:43:08;;;;;;;11.73;8.63;;;15.40;58.90;;;;;;4894261;29;20185;-71
2021/04/02 08:45:39;;;;;;;12.52;7.95;;;15.90;58.70;;;;;;4893153;29;20219;-72
2021/04/02 08:48:06;;;;;;;14.32;8.05;;;16.70;58.20;;;;;;4893034;29;20195;-72
2021/04/02 08:50:33;;;;;;;11.02;8.70;;;17.60;56.00;;;;;;4889271;29;20228;-72
2021/04/02 08:53:09;;;;;;;14.65;8.30;;;18.20;54.20;;;;;;4892693;29;20203;-72
2021/04/02 08:55:36;;;;;;;15.25;8.73;;;18.80;54.00;;;;;;4890860;29;20204;-72
2021/04/02 08:58:02;;;;;;;13.30;8.63;;;19.70;53.20;;;;;;4875972;29;20189;-72
2021/04/02 09:00:29;;;;;;;18.08;9.45;;;20.60;52.80;;;;;;4892765;29;20191;-72
2021/04/02 09:02:55;;;;;;;16.02;8.93;;;21.70;51.20;;;;;;4894744;29;20678;-72
2021/04/02 09:05:21;;;;;;;14.65;9.20;;;22.70;50.40;;;;;;4894936;29;20204;-72
2021/04/02 09:07:47;;;;;;;13.43;9.23;;;23.60;49.30;;;;;;4893422;29;20905;-73
2021/04/02 09:10:18;;;;;;;14.68;8.90;;;24.20;47.80;;;;;;4892266;29;20219;-72
2021/04/02 09:12:48;;;;;;;13.55;8.32;;;24.40;47.00;;;;;;4892470;29;20183;-73
2021/04/02 09:15:29;;;;;;;13.27;8.52;;;24.40;47.40;;;;;;4893118;29;20228;-72
2021/04/02 09:18:16;;;;;;;16.25;8.40;;;24.70;47.50;;;;;;4892185;29;20188;-72
2021/04/02 09:20:43;;;;;;;11.27;7.22;;;25.20;46.70;;;;;;4891418;29;20196;-72
2021/04/02 09:23:09;;;;;;;19.20;7.28;;;25.60;46.70;;;;;;4891272;29;20184;-72
2021/04/02 09:25:42;;;;;;;18.67;7.47;;;26.00;46.20;;;;;;4893351;29;20316;-72
2021/04/02 09:28:08;;;;;;;7.75;5.05;;;26.30;45.30;;;;;;4892383;29;20667;-71
2021/04/02 09:30:34;;;;;;;3.80;3.50;;;26.20;45.10;;;;;;4891263;29;20245;-73
2021/04/02 09:32:59;;;;;;;2.95;2.75;;;26.10;45.60;;;;;;4892292;29;20240;-71
2021/04/02 09:35:25;;;;;;;4.13;2.78;;;26.00;45.80;;;;;;4894368;29;20467;-72
2021/04/02 09:37:52;;;;;;;9.13;3.28;;;25.60;45.90;;;;;;4892625;29;20348;-72
2021/04/02 09:40:18;;;;;;;3.25;3.00;;;25.00;46.80;;;;;;4891198;29;20670;-72
2021/04/02 09:42:48;;;;;;;3.30;3.10;;;24.20;47.80;;;;;;4891589;29;20301;-71
2021/04/02 09:45:14;;;;;;;3.13;3.03;;;23.90;48.40;;;;;;4891358;29;20307;-72
2021/04/02 09:47:45;;;;;;;3.35;2.53;;;23.50;48.80;;;;;;4892232;29;20574;-72
2021/04/02 09:50:12;;;;;;;6.20;2.92;;;23.40;49.30;;;;;;4887836;29;20193;-72
2021/04/02 09:52:39;;;;;;;3.58;3.10;;;23.30;49.40;;;;;;4889286;29;20296;-71
2021/04/02 09:55:07;;;;;;;3.45;3.25;;;23.30;49.40;;;;;;4889076;29;20268;-72
2021/04/02 09:57:33;;;;;;;3.45;2.80;;;22.90;49.60;;;;;;4887780;29;20229;-71
2021/04/02 09:59:59;;;;;;;5.15;3.17;;;22.20;50.60;;;;;;4887245;29;20185;-71
2021/04/02 10:02:24;;;;;;;3.78;3.55;;;21.60;51.40;;;;;;4890558;29;20200;-71
2021/04/02 10:04:50;;;;;;;6.32;2.97;;;21.00;52.40;;;;;;4888828;29;20263;-70
2021/04/02 10:07:16;;;;;;;3.75;3.30;;;20.50;53.30;;;;;;4889227;29;20650;-72
2021/04/02 10:09:42;;;;;;;5.43;3.53;;;20.00;54.20;;;;;;4886742;29;20659;-73
2021/04/02 10:12:08;;;;;;;3.97;3.70;;;19.70;54.70;;;;;;4889276;29;20690;-73
2021/04/02 10:14:34;;;;;;;6.15;3.30;;;19.50;55.50;;;;;;4888778;29;20271;-73
2021/04/02 10:17:00;;;;;;;5.25;3.13;;;19.20;56.80;;;;;;4888042;29;20197;-73
2021/04/02 10:19:25;;;;;;;8.88;3.20;;;19.00;57.20;;;;;;4886851;29;20181;-72
2021/04/02 10:21:51;;;;;;;10.35;3.45;;;18.80;57.50;;;;;;4886324;29;20200;-72
2021/04/02 10:24:17;;;;;;;3.80;3.47;;;18.70;57.70;;;;;;4887892;29;20252;-71
2021/04/02 10:26:43;;;;;;;3.65;3.42;;;18.50;58.60;;;;;;4887104;29;20197;-72
2021/04/02 10:29:09;;;;;;;5.47;3.28;;;18.10;60.00;;;;;;4887175;29;20221;-72
2021/04/02 10:31:35;;;;;;;3.47;3.20;;;17.80;60.70;;;;;;4887895;29;20192;-72
2021/04/02 10:34:01;;;;;;;5.35;3.45;;;17.50;61.70;;;;;;4889145;29;20185;-72
2021/04/02 10:36:27;;;;;;;5.95;3.60;;;17.00;62.90;;;;;;4888571;29;20820;-72
2021/04/02 10:38:53;;;;;;;7.72;3.10;;;16.70;63.80;;;;;;4886340;29;20201;-71
2021/04/02 10:41:19;;;;;;;7.93;3.40;;;16.40;64.80;;;;;;4887209;29;20193;-74
2021/04/02 10:43:45;;;;;;;3.08;2.97;;;16.20;66.10;;;;;;4870591;29;20610;-71
2021/04/02 10:46:14;;;;;;;4.63;3.40;;;16.00;67.60;;;;;;4886888;29;20197;-73
2021/04/02 10:48:40;;;;;;;3.15;2.72;;;15.70;69.10;;;;;;4885992;29;20193;-74
2021/04/02 10:51:07;;;;;;;2.70;2.60;;;15.60;70.10;;;;;;4885689;29;20585;-73
2021/04/02 10:53:32;;;;;;;4.30;3.60;;;15.40;71.30;;;;;;4888211;29;20197;-73
2021/04/02 10:56:00;;;;;;;3.30;3.10;;;15.10;71.60;;;;;;4889860;29;20213;-74
2021/04/02 10:58:28;;;;;;;3.78;3.53;;;15.00;72.70;;;;;;4890059;29;20207;-72
2021/04/02 11:00:53;;;;;;;4.00;3.60;;;14.70;74.00;;;;;;4888392;29;20276;-72
2021/04/02 11:03:19;;;;;;;3.42;3.28;;;14.60;76.20;;;;;;4890243;29;20637;-72
2021/04/02 11:05:45;;;;;;;4.30;3.60;;;14.40;77.80;;;;;;4886561;29;20193;-72
2021/04/02 11:08:10;;;;;;;4.18;3.88;;;14.00;79.40;;;;;;4889514;29;20296;-72
2021/04/02 11:10:36;;;;;;;3.28;3.17;;;13.80;81.40;;;;;;4888708;29;20185;-72
2021/04/02 11:13:02;;;;;;;4.30;3.63;;;13.60;82.00;;;;;;4888975;29;20193;-72
2021/04/02 11:15:27;;;;;;;3.63;3.38;;;13.50;83.50;;;;;;4889366;29;20224;-72
2021/04/02 11:17:53;;;;;;;3.45;3.15;;;13.40;83.80;;;;;;4889598;29;20201;-72
2021/04/02 11:20:25;;;;;;;3.55;3.25;;;13.30;84.10;;;;;;4888042;29;20189;-72
2021/04/02 11:22:52;;;;;;;2.65;2.45;;;13.30;84.00;;;;;;4884557;29;20197;-72
2021/04/02 11:25:17;;;;;;;3.97;3.55;;;13.40;84.70;;;;;;4889626;29;20244;-73
2021/04/02 11:27:43;;;;;;;3.63;3.33;;;13.40;84.30;;;;;;4889035;29;20185;-72
2021/04/02 11:30:12;;;;;;;3.47;3.17;;;13.50;84.10;;;;;;4889157;29;20188;-73
2021/04/02 11:32:38;;;;;;;3.03;2.90;;;13.60;84.90;;;;;;4888310;29;20189;-72
2021/04/02 11:35:06;;;;;;;3.50;3.20;;;13.80;84.70;;;;;;4887991;29;20219;-71
2021/04/02 11:37:32;;;;;;;5.20;2.85;;;14.10;85.10;;;;;;4887509;29;20272;-70
2021/04/02 11:39:58;;;;;;;3.65;3.15;;;14.50;84.00;;;;;;4889165;29;20698;-70
2021/04/02 11:42:24;;;;;;;4.43;3.65;;;14.80;83.50;;;;;;4887903;29;20181;-71
2021/04/02 11:44:49;;;;;;;3.25;3.05;;;15.10;82.50;;;;;;4890239;29;20654;-72
2021/04/02 11:47:15;;;;;;;2.85;2.75;;;15.60;81.30;;;;;;4888208;29;20219;-72
2021/04/02 11:49:41;;;;;;;2.55;2.35;;;16.30;81.90;;;;;;4888039;29;20185;-71
2021/04/02 11:52:07;;;;;;;2.38;2.28;;;17.20;78.60;;;;;;4890949;29;20196;-71
2021/04/02 11:54:33;;;;;;;2.08;2.08;;;18.30;74.90;;;;;;4889026;29;20592;-71
2021/04/02 11:56:59;;;;;;;2.35;2.25;;;18.90;68.90;;;;;;4887732;29;20193;-71
2021/04/02 11:59:24;;;;;;;6.10;1.88;;;19.20;69.20;;;;;;4887324;29;20228;-72
2021/04/02 12:01:50;;;;;;;2.47;2.38;;;19.70;68.00;;;;;;4888386;29;20659;-73
2021/04/02 12:04:16;;;;;;;1.55;1.52;;;20.30;65.20;;;;;;4888014;29;20252;-73
2021/04/02 12:06:42;;;;;;;1.88;1.88;;;20.70;63.70;;;;;;4889419;29;20686;-73
2021/04/02 12:09:10;;;;;;;2.00;1.70;;;21.00;61.80;;;;;;4887267;29;20196;-73
2021/04/02 12:11:36;;;;;;;1.70;1.70;;;21.30;60.90;;;;;;4887719;29;20670;-73
2021/04/02 12:14:02;;;;;;;1.60;1.58;;;21.60;60.80;;;;;;4888428;29;20181;-73
2021/04/02 12:16:28;;;;;;;2.20;1.75;;;22.10;59.80;;;;;;4889753;29;20217;-73
2021/04/02 12:18:54;;;;;;;2.00;1.90;;;22.50;58.40;;;;;;4886977;29;20253;-73
2021/04/02 12:21:19;;;;;;;1.80;1.70;;;22.50;58.20;;;;;;4888150;29;20213;-72
2021/04/02 12:23:45;;;;;;;1.60;1.60;;;22.70;58.30;;;;;;4887780;29;20220;-73
2021/04/02 12:26:11;;;;;;;2.30;1.70;;;22.80;57.20;;;;;;4886177;29;20275;-72
2021/04/02 12:28:36;;;;;;;1.95;1.85;;;23.00;57.40;;;;;;4886859;29;20252;-72
2021/04/02 12:31:02;;;;;;;2.03;2.03;;;23.40;56.80;;;;;;4887997;29;20207;-73
2021/04/02 12:33:29;;;;;;;3.17;2.03;;;23.60;56.10;;;;;;4885904;29;20193;-73
2021/04/02 12:35:56;;;;;;;2.10;2.05;;;23.80;56.00;;;;;;4887248;29;20216;-73
2021/04/02 12:38:21;;;;;;;3.25;2.05;;;23.80;55.60;;;;;;4884981;29;20694;-72
2021/04/02 12:40:47;;;;;;;2.22;2.13;;;24.10;55.70;;;;;;4887060;29;21228;-73
2021/04/02 12:43:13;;;;;;;2.20;2.10;;;24.70;55.80;;;;;;4886220;29;21248;-73
2021/04/02 12:45:38;;;;;;;2.47;2.28;;;25.20;54.30;;;;;;4884818;29;20291;-73
2021/04/02 12:48:05;;;;;;;2.30;1.90;;;25.00;53.40;;;;;;4888764;29;20193;-72
2021/04/02 12:50:32;;;;;;;3.50;1.90;;;24.30;54.00;;;;;;4885460;29;20219;-71
2021/04/02 12:52:58;;;;;;;2.22;2.00;;;23.70;55.20;;;;;;4886556;29;20237;-73
2021/04/02 12:55:26;;;;;;;2.25;2.03;;;23.40;55.80;;;;;;4888046;29;20706;-72